Time;durP1;ratioP1;P1;durP2;ratioP2;P2;SDS_P1;SDS_P2;PMS_P1;PMS_P2;Temp;Humidity;BMP_temperature;BMP_pressure;BME280_temperature;BME280_humidity;BME280_pressure;Samples;Min_cycle;Max_cycle;Signal;HPM_P1;HPM_P2
2021/07/23 00:03:09;;;;;;;6.18;5.45;;;;;;;14.39;76.58;102023.19;10456098;28;20504;-61
2021/07/23 00:08:11;;;;;;;7.28;6.07;;;;;;;14.29;77.60;102012.31;10455894;28;20045;-62
2021/07/23 00:13:13;;;;;;;7.60;5.72;;;;;;;14.16;78.04;102016.53;10456908;28;20056;-61
2021/07/23 00:18:16;;;;;;;10.95;6.22;;;;;;;14.17;77.83;102020.00;10454908;28;20051;-63
2021/07/23 00:23:19;;;;;;;8.05;6.03;;;;;;;14.23;77.66;102014.41;10454752;28;20071;-61
2021/07/23 00:28:21;;;;;;;9.18;6.30;;;;;;;14.06;78.09;102012.69;10463161;28;20049;-61
2021/07/23 00:33:23;;;;;;;6.22;5.63;;;;;;;14.01;78.04;102012.91;10463796;28;20063;-61
2021/07/23 00:38:26;;;;;;;8.13;6.45;;;;;;;13.63;79.97;102013.09;10463755;28;20045;-62
2021/07/23 00:43:28;;;;;;;7.78;5.78;;;;;;;13.78;78.83;102003.56;10463363;28;20397;-62
2021/07/23 00:48:30;;;;;;;8.25;6.53;;;;;;;13.76;78.82;102002.81;10461906;28;20374;-62
2021/07/23 00:53:33;;;;;;;8.07;6.22;;;;;;;13.68;79.15;102004.97;10463497;28;20056;-62
2021/07/23 00:58:35;;;;;;;8.05;6.55;;;;;;;13.54;79.60;101997.78;10462550;28;20550;-61
2021/07/23 01:03:38;;;;;;;10.20;6.57;;;;;;;13.43;79.92;102000.97;10461220;28;20045;-62
2021/07/23 01:08:42;;;;;;;7.65;6.80;;;;;;;13.56;79.63;101993.28;10462624;28;20052;-61
2021/07/23 01:13:44;;;;;;;8.95;6.35;;;;;;;13.77;79.33;101990.50;10462379;28;20095;-62
2021/07/23 01:18:47;;;;;;;9.18;6.72;;;;;;;13.38;79.70;101993.31;10461965;28;20463;-62
2021/07/23 01:23:49;;;;;;;11.35;6.50;;;;;;;13.21;79.92;101993.25;10461826;28;20053;-62
2021/07/23 01:28:51;;;;;;;8.15;6.82;;;;;;;13.23;79.85;101985.28;10459914;28;20064;-61
2021/07/23 01:33:54;;;;;;;8.60;6.63;;;;;;;13.04;81.33;101983.56;10460250;28;20049;-61
2021/07/23 01:38:57;;;;;;;8.40;6.68;;;;;;;12.96;81.39;101986.59;10460062;28;20052;-63
2021/07/23 01:43:59;;;;;;;7.43;6.55;;;;;;;13.16;80.96;101982.97;10461070;28;20045;-61
2021/07/23 01:49:02;;;;;;;7.78;6.47;;;;;;;12.94;81.12;101974.44;10460897;28;20052;-62
2021/07/23 01:54:04;;;;;;;9.00;6.80;;;;;;;13.01;80.25;101976.69;10460723;28;20056;-62
2021/07/23 01:59:06;;;;;;;9.73;5.70;;;;;;;13.02;80.44;101980.16;10459300;28;20045;-62
2021/07/23 02:04:09;;;;;;;8.65;6.47;;;;;;;12.88;81.51;101977.34;10459343;28;20052;-62
2021/07/23 02:09:11;;;;;;;8.48;5.70;;;;;;;12.82;80.92;101973.25;10459925;28;20401;-63
2021/07/23 02:14:14;;;;;;;7.88;6.85;;;;;;;12.55;82.37;101972.78;10460402;28;20045;-62
2021/07/23 02:19:16;;;;;;;10.60;6.68;;;;;;;12.58;82.35;101968.22;10459681;28;20049;-62
2021/07/23 02:24:19;;;;;;;12.48;7.70;;;;;;;12.51;81.53;101961.56;10459509;28;20056;-61
2021/07/23 02:29:21;;;;;;;8.85;6.68;;;;;;;12.47;81.65;101960.00;10459063;28;20059;-62
2021/07/23 02:34:24;;;;;;;7.50;6.30;;;;;;;12.46;82.78;101958.31;10459055;28;20059;-63
2021/07/23 02:39:26;;;;;;;7.70;6.53;;;;;;;12.51;82.17;101956.31;10458594;28;20044;-61
2021/07/23 02:44:28;;;;;;;9.60;7.40;;;;;;;12.43;82.47;101963.72;10457602;28;20049;-61
2021/07/23 02:49:30;;;;;;;7.53;6.15;;;;;;;12.42;82.30;101960.25;10458147;28;20056;-61
2021/07/23 02:54:33;;;;;;;10.75;6.57;;;;;;;12.43;81.06;101961.91;10458312;28;20049;-63
2021/07/23 02:59:35;;;;;;;8.73;6.75;;;;;;;12.38;82.46;101953.41;10457828;28;20052;-62
2021/07/23 03:04:37;;;;;;;6.95;5.95;;;;;;;12.19;83.20;101965.69;10457902;28;20053;-61
2021/07/23 03:09:40;;;;;;;8.73;6.88;;;;;;;12.27;82.41;101960.91;10456335;28;20481;-62
2021/07/23 03:14:42;;;;;;;8.85;6.28;;;;;;;12.27;81.87;101948.66;10457610;28;20049;-61
2021/07/23 03:19:44;;;;;;;10.77;6.68;;;;;;;12.22;82.54;101950.66;10457402;28;20048;-62
2021/07/23 03:24:47;;;;;;;12.05;7.03;;;;;;;12.30;82.29;101933.69;10457209;28;20055;-61
2021/07/23 03:29:49;;;;;;;11.25;6.35;;;;;;;12.28;81.93;101933.75;10456792;28;20060;-61
2021/07/23 03:34:51;;;;;;;10.80;7.53;;;;;;;12.15;82.34;101932.63;10456872;28;20049;-61
2021/07/23 03:39:54;;;;;;;10.63;7.35;;;;;;;12.12;82.88;101933.63;10456567;28;20056;-62
2021/07/23 03:44:56;;;;;;;6.97;6.07;;;;;;;12.33;82.44;101925.66;10455884;28;20049;-62
2021/07/23 03:49:58;;;;;;;10.02;7.32;;;;;;;12.04;83.03;101930.50;10456284;28;20401;-61
2021/07/23 03:55:00;;;;;;;9.55;7.43;;;;;;;12.08;83.05;101922.38;10455225;28;20493;-62
2021/07/23 04:00:03;;;;;;;11.07;7.45;;;;;;;12.08;83.18;101929.41;10459168;28;20431;-60
2021/07/23 04:05:06;;;;;;;12.18;6.90;;;;;;;12.14;82.44;101923.91;10464091;28;20049;-62
2021/07/23 04:10:09;;;;;;;15.00;9.02;;;;;;;12.12;83.36;101924.88;10464495;28;20378;-61
2021/07/23 04:15:11;;;;;;;10.75;7.32;;;;;;;12.12;83.49;101922.25;10464609;28;20076;-61
2021/07/23 04:20:14;;;;;;;9.35;7.35;;;;;;;12.24;82.71;101924.31;10464012;28;20053;-61
2021/07/23 04:25:17;;;;;;;11.18;7.35;;;;;;;12.24;82.65;101919.06;10463879;28;20045;-61
2021/07/23 04:30:19;;;;;;;10.10;7.22;;;;;;;12.15;83.57;101924.75;10464033;28;20053;-61
2021/07/23 04:35:22;;;;;;;12.82;7.60;;;;;;;12.31;83.56;101924.91;10462579;28;20390;-61
2021/07/23 04:40:24;;;;;;;8.30;7.50;;;;;;;12.52;82.79;101925.63;10462216;28;20507;-61
2021/07/23 04:45:26;;;;;;;11.20;7.82;;;;;;;12.36;83.46;101926.38;10463342;28;20049;-63
2021/07/23 04:50:29;;;;;;;10.70;7.85;;;;;;;12.64;82.40;101923.28;10461980;28;20045;-62
2021/07/23 04:55:31;;;;;;;10.15;7.28;;;;;;;12.65;82.42;101924.13;10462898;28;20409;-63
2021/07/23 05:00:33;;;;;;;11.05;8.13;;;;;;;12.73;83.26;101914.09;10462608;28;20052;-62
2021/07/23 05:05:37;;;;;;;8.82;7.35;;;;;;;12.83;82.77;101917.13;10461255;28;20485;-62
2021/07/23 05:10:43;;;;;;;9.02;7.18;;;;;;;12.98;82.66;101923.41;10460717;28;20057;-63
2021/07/23 05:15:45;;;;;;;11.57;8.13;;;;;;;13.05;82.73;101924.81;10461162;28;20045;-63
2021/07/23 05:20:48;;;;;;;10.98;7.72;;;;;;;13.15;83.07;101910.28;10461866;28;20494;-62
2021/07/23 05:25:50;;;;;;;12.98;9.18;;;;;;;13.23;82.18;101909.03;10461604;28;20049;-63
2021/07/23 05:30:53;;;;;;;13.32;9.13;;;;;;;13.29;81.14;101912.19;10462250;28;20053;-63
2021/07/23 05:35:55;;;;;;;16.42;11.80;;;;;;;13.49;82.84;101908.56;10461404;28;20060;-63
2021/07/23 05:41:04;;;;;;;12.88;10.45;;;;;;;13.53;81.99;101909.25;10461324;28;20056;-62
2021/07/23 05:46:07;;;;;;;15.57;11.50;;;;;;;13.62;81.08;101910.59;10461106;28;20060;-63
2021/07/23 05:51:12;;;;;;;15.90;10.02;;;;;;;13.82;81.41;101904.22;10460460;28;20392;-63
2021/07/23 05:56:14;;;;;;;11.63;9.07;;;;;;;13.81;81.63;101902.56;10460513;28;20492;-63
2021/07/23 06:01:16;;;;;;;13.68;9.48;;;;;;;14.27;80.00;101911.44;10461074;28;20049;-63
2021/07/23 06:06:19;;;;;;;12.15;9.40;;;;;;;14.41;80.06;101902.75;10460215;28;20080;-62
2021/07/23 06:11:41;;;;;;;9.88;8.60;;;;;;;14.74;78.96;101901.78;10460107;28;20045;-62
2021/07/23 06:16:43;;;;;;;11.07;7.63;;;;;;;14.78;78.02;101902.50;10459692;28;20045;-63
2021/07/23 06:21:45;;;;;;;10.15;7.20;;;;;;;14.79;78.27;101909.44;10458923;28;20048;-63
2021/07/23 06:26:48;;;;;;;7.57;6.75;;;;;;;15.11;78.08;101915.47;10459781;28;20045;-64
2021/07/23 06:31:50;;;;;;;8.93;7.50;;;;;;;15.25;77.19;101912.06;10459331;28;20049;-62
2021/07/23 06:36:52;;;;;;;11.63;7.47;;;;;;;15.42;76.83;101903.97;10458735;28;20098;-62
2021/07/23 06:41:55;;;;;;;8.80;6.03;;;;;;;15.52;76.73;101898.13;10458953;28;20048;-62
2021/07/23 06:46:57;;;;;;;7.05;5.57;;;;;;;15.73;76.10;101899.44;10457072;28;20205;-62
2021/07/23 06:52:00;;;;;;;11.05;5.78;;;;;;;15.68;74.82;101900.69;10458672;28;20055;-63
2021/07/23 06:57:06;;;;;;;6.03;5.40;;;;;;;15.74;73.31;101900.31;10458252;28;20053;-62
2021/07/23 07:02:08;;;;;;;9.98;5.55;;;;;;;16.14;72.37;101897.84;10456796;28;20056;-62
2021/07/23 07:07:11;;;;;;;7.63;4.80;;;;;;;16.55;70.92;101901.41;10457780;28;20041;-63
2021/07/23 07:12:14;;;;;;;7.60;4.68;;;;;;;16.56;71.95;101906.59;10457693;28;20056;-63
2021/07/23 07:17:18;;;;;;;8.10;4.30;;;;;;;16.84;69.30;101907.41;10457254;28;20540;-63
2021/07/23 07:22:23;;;;;;;9.07;5.50;;;;;;;17.00;69.34;101902.00;10457394;28;20048;-62
2021/07/23 07:27:25;;;;;;;6.28;4.45;;;;;;;17.65;68.29;101911.66;10456962;28;20045;-61
2021/07/23 07:32:27;;;;;;;8.15;4.47;;;;;;;17.86;67.32;101908.47;10456789;28;20057;-62
2021/07/23 07:37:30;;;;;;;7.72;5.47;;;;;;;18.10;66.88;101898.78;10456891;28;20059;-62
2021/07/23 07:42:32;;;;;;;5.32;4.82;;;;;;;18.72;65.20;101903.09;10456866;28;20128;-61
2021/07/23 07:47:39;;;;;;;8.57;5.53;;;;;;;19.03;65.41;101900.84;10456296;28;20049;-61
2021/07/23 07:52:41;;;;;;;5.95;4.75;;;;;;;19.27;64.23;101895.47;10455358;28;20045;-62
2021/07/23 07:57:43;;;;;;;7.07;4.03;;;;;;;19.52;64.65;101898.00;10438496;28;20048;-62
2021/07/23 08:02:47;;;;;;;7.07;4.75;;;;;;;20.27;61.92;101893.88;10456775;28;20041;-62
2021/07/23 08:07:50;;;;;;;4.80;4.30;;;;;;;19.65;62.23;101891.63;10456268;28;20049;-62
2021/07/23 08:12:53;;;;;;;5.63;4.28;;;;;;;19.68;60.43;101877.25;10456082;28;20469;-62
2021/07/23 08:17:57;;;;;;;4.88;3.85;;;;;;;21.00;60.01;101881.66;10456125;28;20045;-63
2021/07/23 08:22:59;;;;;;;4.32;3.72;;;;;;;22.04;57.27;101874.41;10455458;28;20045;-62
2021/07/23 08:28:02;;;;;;;4.60;4.10;;;;;;;21.52;57.10;101873.69;10456154;28;20048;-62
2021/07/23 08:33:04;;;;;;;8.27;3.88;;;;;;;21.95;55.31;101867.22;10456121;28;20501;-61
2021/07/23 08:38:07;;;;;;;6.47;4.82;;;;;;;20.91;57.12;101877.94;10455881;28;20048;-62
2021/07/23 08:43:10;;;;;;;6.10;4.57;;;;;;;21.00;57.41;101876.31;10455586;28;20048;-63
2021/07/23 08:48:12;;;;;;;4.93;4.13;;;;;;;20.65;58.98;101868.66;10460673;28;20051;-62
2021/07/23 08:53:14;;;;;;;6.35;4.85;;;;;;;21.46;53.81;101861.69;10462110;28;20053;-62
2021/07/23 08:58:18;;;;;;;5.35;4.85;;;;;;;22.75;54.69;101860.00;10462738;28;20049;-62
2021/07/23 09:03:27;;;;;;;12.57;4.70;;;;;;;21.91;51.59;101851.66;10462365;28;20592;-62
2021/07/23 09:08:48;;;;;;;6.88;4.65;;;;;;;21.24;54.27;101862.72;10462869;28;20072;-62
2021/07/23 09:13:50;;;;;;;5.90;5.20;;;;;;;21.61;53.90;101864.88;10462437;28;20045;-61
2021/07/23 09:19:09;;;;;;;7.43;4.10;;;;;;;22.93;52.88;101854.78;10460913;28;20076;-62
2021/07/23 09:24:12;;;;;;;6.13;4.85;;;;;;;23.13;49.37;101847.63;10462156;28;20090;-62
2021/07/23 09:29:14;;;;;;;5.25;4.75;;;;;;;22.48;50.43;101839.38;10460399;28;20060;-62
2021/07/23 09:34:30;;;;;;;4.28;3.88;;;;;;;22.74;51.31;101842.31;10460759;28;20048;-62
2021/07/23 09:39:34;;;;;;;6.10;5.22;;;;;;;20.28;57.41;101837.91;10460261;28;20078;-63
2021/07/23 09:44:37;;;;;;;8.93;4.90;;;;;;;22.21;55.60;101826.72;10460058;28;20136;-63
2021/07/23 09:49:45;;;;;;;4.70;4.25;;;;;;;21.51;53.99;101822.19;10461181;28;20053;-62
2021/07/23 09:54:48;;;;;;;4.97;4.55;;;;;;;22.16;53.57;101813.78;10461285;28;20064;-63
2021/07/23 09:59:58;;;;;;;4.78;3.65;;;;;;;23.55;50.24;101807.09;10441846;28;20053;-62
2021/07/23 10:05:07;;;;;;;6.25;4.10;;;;;;;23.97;50.81;101799.53;10458964;28;20051;-62
2021/07/23 10:10:13;;;;;;;6.22;4.45;;;;;;;23.88;49.95;101796.75;10458872;28;20409;-62
2021/07/23 10:15:18;;;;;;;5.50;4.70;;;;;;;22.78;53.21;101800.16;10460277;28;20132;-62
2021/07/23 10:20:21;;;;;;;4.43;3.83;;;;;;;23.76;50.75;101792.59;10458927;28;20060;-62
2021/07/23 10:25:26;;;;;;;4.80;3.63;;;;;;;23.54;53.35;101794.69;10459417;28;20056;-63
2021/07/23 10:30:33;;;;;;;4.10;3.70;;;;;;;22.83;53.11;101797.91;10458513;28;20053;-63
2021/07/23 10:35:35;;;;;;;3.92;3.53;;;;;;;23.08;50.98;101780.44;10459335;28;20049;-63
2021/07/23 10:40:40;;;;;;;9.48;4.35;;;;;;;25.14;47.18;101782.34;10459196;28;20069;-62
2021/07/23 10:45:43;;;;;;;5.22;4.50;;;;;;;23.64;49.60;101778.59;10458720;28;20045;-64
2021/07/23 10:50:47;;;;;;;5.65;5.00;;;;;;;22.65;52.62;101783.63;10459346;28;20045;-62
2021/07/23 10:55:49;;;;;;;10.07;4.80;;;;;;;23.36;53.47;101781.28;10457482;28;20048;-62
2021/07/23 11:00:59;;;;;;;6.55;4.60;;;;;;;23.91;49.63;101772.41;10457080;28;20041;-62
2021/07/23 11:06:12;;;;;;;6.78;4.13;;;;;;;24.43;50.98;101765.50;10457893;28;20512;-63
2021/07/23 11:11:15;;;;;;;6.53;4.85;;;;;;;23.25;54.56;101756.59;10457612;28;20116;-63
2021/07/23 11:16:19;;;;;;;5.40;4.88;;;;;;;22.37;54.41;101757.66;10456681;28;20051;-63
2021/07/23 11:21:23;;;;;;;8.32;4.50;;;;;;;24.96;51.35;101751.13;10456250;28;20132;-63
2021/07/23 11:26:25;;;;;;;5.10;4.13;;;;;;;24.71;46.17;101751.97;10457182;28;20045;-63
2021/07/23 11:31:36;;;;;;;4.82;4.32;;;;;;;23.97;47.74;101754.06;10456875;28;20056;-62
2021/07/23 11:36:43;;;;;;;5.38;4.47;;;;;;;23.90;50.61;101740.47;10458294;28;20051;-62
2021/07/23 11:42:03;;;;;;;5.97;5.03;;;;;;;24.13;48.22;101729.31;10457003;28;20049;-62
2021/07/23 11:47:07;;;;;;;7.18;5.25;;;;;;;23.95;47.81;101721.28;10456262;28;20068;-62
2021/07/23 11:52:09;;;;;;;5.03;4.20;;;;;;;24.32;48.87;101714.91;10455860;28;20052;-63
2021/07/23 11:57:13;;;;;;;6.90;4.75;;;;;;;25.10;46.32;101701.47;10456433;28;20053;-63
2021/07/23 12:02:16;;;;;;;6.93;5.18;;;;;;;26.23;45.99;101687.56;10455611;28;20079;-63
2021/07/23 12:07:18;;;;;;;7.05;5.65;;;;;;;26.55;45.48;101693.88;10456074;28;20049;-62
2021/07/23 12:12:22;;;;;;;7.28;5.32;;;;;;;25.89;44.60;101680.53;10456132;28;20400;-63
2021/07/23 12:17:24;;;;;;;6.45;5.10;;;;;;;26.68;45.01;101667.38;10454754;28;20045;-63
2021/07/23 12:22:27;;;;;;;12.20;5.85;;;;;;;26.14;44.56;101665.28;10461607;28;20045;-63
2021/07/23 12:27:29;;;;;;;9.02;6.75;;;;;;;24.87;47.36;101657.50;10462752;28;20053;-62
2021/07/23 12:32:31;;;;;;;7.63;5.95;;;;;;;25.16;46.48;101654.41;10462307;28;20496;-63
2021/07/23 12:37:34;;;;;;;6.80;6.10;;;;;;;25.00;47.58;101655.22;10463688;28;20059;-64
2021/07/23 12:42:36;;;;;;;5.80;5.13;;;;;;;25.17;46.98;101640.84;10462523;28;20049;-64
2021/07/23 12:47:48;;;;;;;7.50;5.32;;;;;;;25.42;46.89;101622.19;10463996;28;20131;-63
2021/07/23 12:52:51;;;;;;;6.97;5.30;;;;;;;24.50;47.65;101622.00;10463330;28;20046;-65
2021/07/23 12:57:54;;;;;;;5.65;5.05;;;;;;;24.16;47.87;101617.47;10463465;28;20051;-63
2021/07/23 13:02:56;;;;;;;6.63;4.55;;;;;;;25.73;46.09;101611.63;10462951;28;20052;-64
2021/07/23 13:07:59;;;;;;;6.68;4.63;;;;;;;26.03;45.62;101601.22;10462411;28;20052;-63
2021/07/23 13:13:02;;;;;;;6.90;4.60;;;;;;;26.45;45.75;101607.34;10462849;28;20045;-64
2021/07/23 13:18:04;;;;;;;7.97;5.63;;;;;;;24.37;48.01;101603.69;10462041;28;20048;-63
2021/07/23 13:23:07;;;;;;;7.68;4.97;;;;;;;26.58;42.25;101604.94;10462526;28;20052;-64
2021/07/23 13:28:09;;;;;;;6.65;4.47;;;;;;;27.30;45.11;101601.22;10461938;28;20061;-62
2021/07/23 13:33:12;;;;;;;7.00;5.40;;;;;;;25.47;47.47;101595.72;10460429;28;20059;-62
2021/07/23 13:38:18;;;;;;;5.28;4.05;;;;;;;26.67;44.84;101601.22;10461603;28;20072;-62
2021/07/23 13:43:21;;;;;;;8.77;4.53;;;;;;;26.21;45.05;101597.50;10461334;28;20044;-63
2021/07/23 13:48:23;;;;;;;8.75;4.25;;;;;;;27.29;44.50;101594.19;10460951;28;20061;-63
2021/07/23 13:53:25;;;;;;;6.07;3.90;;;;;;;26.40;46.94;101601.66;10459833;28;20044;-62
2021/07/23 13:58:28;;;;;;;4.57;3.85;;;;;;;27.54;43.83;101592.13;10460958;28;20052;-63
2021/07/23 14:03:30;;;;;;;4.38;3.97;;;;;;;28.28;40.77;101585.22;10459013;28;20049;-63
2021/07/23 14:08:33;;;;;;;10.23;4.95;;;;;;;26.96;42.82;101580.09;10460176;28;20087;-63
2021/07/23 14:13:36;;;;;;;6.57;5.32;;;;;;;27.50;39.93;101585.44;10460161;28;20052;-63
2021/07/23 14:18:39;;;;;;;5.97;4.75;;;;;;;26.39;46.88;101587.38;10459819;28;20546;-64
2021/07/23 14:23:41;;;;;;;8.18;4.95;;;;;;;26.97;45.67;101576.41;10459995;28;20056;-63
2021/07/23 14:28:44;;;;;;;8.65;5.72;;;;;;;26.10;43.32;101578.06;10459566;28;20048;-63
2021/07/23 14:33:47;;;;;;;6.25;4.82;;;;;;;28.69;40.16;101564.00;10459878;28;20493;-63
2021/07/23 14:38:51;;;;;;;6.70;5.30;;;;;;;26.20;44.37;101563.63;10458821;28;20080;-64
2021/07/23 14:43:53;;;;;;;7.03;5.43;;;;;;;27.68;43.02;101546.63;10457132;28;20053;-63
2021/07/23 14:48:56;;;;;;;9.82;6.47;;;;;;;25.29;45.52;101542.25;10458964;28;20056;-63
2021/07/23 14:53:58;;;;;;;8.80;6.40;;;;;;;26.29;45.55;101547.34;10458646;28;20041;-63
2021/07/23 14:59:00;;;;;;;10.98;7.03;;;;;;;25.70;45.04;101534.19;10456947;28;20041;-63
2021/07/23 15:04:03;;;;;;;9.85;6.35;;;;;;;26.21;46.46;101543.81;10458257;28;20149;-63
2021/07/23 15:09:05;;;;;;;7.68;6.07;;;;;;;25.58;45.24;101538.22;10458001;28;20045;-64
2021/07/23 15:14:08;;;;;;;6.78;5.70;;;;;;;26.13;46.52;101531.28;10458229;28;20048;-63
2021/07/23 15:19:20;;;;;;;10.85;6.10;;;;;;;26.11;43.34;101525.25;10456099;28;20485;-63
2021/07/23 15:24:23;;;;;;;8.15;5.80;;;;;;;25.44;44.96;101517.47;10455287;28;20049;-63
2021/07/23 15:29:26;;;;;;;11.20;6.35;;;;;;;25.21;47.25;101510.91;10455822;28;20497;-64
2021/07/23 15:34:31;;;;;;;12.80;6.40;;;;;;;25.67;46.82;101509.56;10455838;28;20049;-64
2021/07/23 15:39:34;;;;;;;6.07;5.28;;;;;;;25.85;46.00;101509.34;10456922;28;20044;-64
2021/07/23 15:44:38;;;;;;;13.32;7.38;;;;;;;26.26;45.25;101502.03;10455660;28;20041;-64
2021/07/23 15:49:40;;;;;;;8.98;7.65;;;;;;;25.86;47.13;101494.94;10456573;28;20413;-64
2021/07/23 15:54:43;;;;;;;13.98;7.90;;;;;;;26.51;45.40;101505.44;10455552;28;20056;-64
2021/07/23 15:59:45;;;;;;;9.27;7.80;;;;;;;24.52;48.65;101498.72;10456513;28;20048;-64
2021/07/23 16:04:47;;;;;;;10.63;7.30;;;;;;;24.90;46.05;101485.75;10456242;28;20477;-63
2021/07/23 16:09:50;;;;;;;10.15;6.50;;;;;;;25.33;45.79;101492.66;10455175;28;20051;-65
2021/07/23 16:14:53;;;;;;;10.13;7.10;;;;;;;25.43;47.13;101472.91;10456084;28;20057;-63
2021/07/23 16:19:56;;;;;;;9.43;7.45;;;;;;;24.44;48.65;101462.91;10455516;28;20128;-64
2021/07/23 16:24:58;;;;;;;10.85;8.43;;;;;;;24.51;48.18;101468.44;10455803;28;20056;-63
2021/07/23 16:30:01;;;;;;;8.85;7.43;;;;;;;24.58;47.99;101452.56;10454457;28;20052;-63
2021/07/23 16:35:04;;;;;;;7.85;7.00;;;;;;;24.43;48.68;101445.16;10455885;28;20055;-63
2021/07/23 16:40:06;;;;;;;10.68;7.78;;;;;;;24.22;49.17;101442.91;10454522;28;20417;-63
2021/07/23 16:45:09;;;;;;;8.57;6.47;;;;;;;24.02;51.21;101438.84;10455400;28;20049;-63
2021/07/23 16:50:11;;;;;;;8.77;6.47;;;;;;;24.09;49.89;101429.16;10455529;28;20053;-62
2021/07/23 16:55:14;;;;;;;6.25;5.35;;;;;;;24.05;50.28;101425.97;10455930;28;20056;-62
2021/07/23 17:00:17;;;;;;;6.50;5.90;;;;;;;24.10;49.69;101426.31;10454620;28;20052;-63
2021/07/23 17:05:19;;;;;;;6.85;5.43;;;;;;;24.10;52.57;101431.69;10455163;28;20075;-63
2021/07/23 17:10:22;;;;;;;9.85;6.65;;;;;;;23.80;51.17;101416.97;10463021;28;20049;-64
2021/07/23 17:15:24;;;;;;;8.80;6.28;;;;;;;23.45;52.25;101417.97;10461406;28;20087;-62
2021/07/23 17:20:28;;;;;;;9.80;5.68;;;;;;;23.51;51.51;101410.16;10461980;28;20488;-63
2021/07/23 17:25:30;;;;;;;7.43;5.85;;;;;;;22.99;52.96;101416.28;10460608;28;20485;-62
2021/07/23 17:30:33;;;;;;;10.32;7.00;;;;;;;22.89;53.26;101412.84;10461711;28;20396;-62
2021/07/23 17:35:35;;;;;;;8.98;6.63;;;;;;;22.71;54.70;101409.34;10461492;28;20079;-62
2021/07/23 17:40:40;;;;;;;11.07;6.80;;;;;;;23.15;53.83;101393.41;10460327;28;20052;-63
2021/07/23 17:50:56;;;;;;;10.02;6.18;;;;;;;22.61;55.75;101388.06;10459924;28;20512;-62
2021/07/23 17:55:58;;;;;;;11.15;7.60;;;;;;;22.14;57.20;101390.91;10460695;28;20497;-63
2021/07/23 18:01:01;;;;;;;11.30;7.70;;;;;;;22.07;58.08;101380.84;10460644;28;20421;-63
2021/07/23 18:06:03;;;;;;;15.35;10.10;;;;;;;21.45;58.73;101372.53;10459942;28;20499;-63
2021/07/23 18:11:07;;;;;;;10.68;8.05;;;;;;;21.75;57.71;101375.09;10460372;28;20055;-63
2021/07/23 18:16:09;;;;;;;9.68;7.00;;;;;;;21.41;59.48;101368.47;10460045;28;20420;-63
2021/07/23 18:21:12;;;;;;;7.38;6.63;;;;;;;21.40;59.54;101371.28;10458246;28;20051;-64
2021/07/23 18:26:14;;;;;;;11.00;6.63;;;;;;;21.30;59.67;101364.16;10459517;28;20049;-64
2021/07/23 18:31:16;;;;;;;7.95;7.20;;;;;;;20.96;60.24;101355.81;10459584;28;20071;-63
2021/07/23 18:36:19;;;;;;;7.60;6.25;;;;;;;20.84;61.33;101356.97;10459064;28;20535;-63
2021/07/23 18:41:21;;;;;;;8.27;6.30;;;;;;;20.99;61.32;101352.88;10457804;28;20393;-62
2021/07/23 18:46:23;;;;;;;12.70;7.80;;;;;;;20.70;61.67;101351.09;10457344;28;20512;-63
2021/07/23 18:51:26;;;;;;;8.38;7.07;;;;;;;20.90;61.50;101359.06;10458842;28;20045;-63
2021/07/23 18:56:28;;;;;;;10.70;7.38;;;;;;;20.45;63.70;101360.44;10458726;28;20057;-62
2021/07/23 19:01:31;;;;;;;11.25;8.13;;;;;;;20.26;64.40;101350.63;10457019;28;20396;-62
2021/07/23 19:06:34;;;;;;;10.10;7.20;;;;;;;20.15;64.59;101351.56;10456981;28;20077;-62
2021/07/23 19:11:37;;;;;;;10.63;7.90;;;;;;;20.12;63.43;101348.34;10457822;28;20072;-61
2021/07/23 19:16:40;;;;;;;9.32;7.57;;;;;;;19.66;65.26;101347.91;10456578;28;20057;-61
2021/07/23 19:21:43;;;;;;;13.85;9.65;;;;;;;19.80;64.43;101352.03;10457963;28;20103;-61
2021/07/23 19:26:45;;;;;;;11.32;8.50;;;;;;;19.52;65.19;101349.13;10457331;28;20053;-61
2021/07/23 19:31:47;;;;;;;10.75;8.88;;;;;;;19.49;65.65;101346.72;10457041;28;20497;-63
2021/07/23 19:36:50;;;;;;;12.68;9.23;;;;;;;19.34;66.04;101348.88;10456171;28;20064;-62
2021/07/23 19:41:53;;;;;;;13.15;9.80;;;;;;;19.22;65.82;101349.94;10456927;28;20049;-62
2021/07/23 19:46:56;;;;;;;12.80;8.88;;;;;;;18.84;67.84;101333.63;10456685;28;20041;-62
2021/07/23 19:51:58;;;;;;;15.00;9.20;;;;;;;18.85;67.44;101343.28;10456499;28;20128;-62
2021/07/23 19:57:02;;;;;;;18.70;9.23;;;;;;;18.94;68.01;101342.50;10456495;28;20053;-63
2021/07/23 20:02:05;;;;;;;17.88;9.63;;;;;;;18.92;67.65;101335.66;10456778;28;20051;-63
2021/07/23 20:07:07;;;;;;;13.70;9.70;;;;;;;18.75;68.66;101358.25;10455441;28;20485;-62
2021/07/23 20:12:10;;;;;;;12.45;8.68;;;;;;;18.73;68.31;101349.59;10456242;28;20524;-63
2021/07/23 20:17:12;;;;;;;9.88;8.88;;;;;;;18.51;69.05;101345.22;10456002;28;20055;-62
2021/07/23 20:22:15;;;;;;;13.63;8.00;;;;;;;18.57;69.29;101339.41;10455352;28;20045;-62
2021/07/23 20:27:17;;;;;;;16.42;10.27;;;;;;;17.96;71.30;101347.91;10455939;28;20049;-62
2021/07/23 20:32:20;;;;;;;12.63;9.73;;;;;;;17.96;71.40;101342.59;10455213;28;20119;-64
2021/07/23 20:37:22;;;;;;;12.27;9.55;;;;;;;18.06;70.60;101346.19;10455780;28;20124;-62
2021/07/23 20:42:25;;;;;;;11.57;8.30;;;;;;;17.96;71.49;101343.44;10458978;28;20489;-62
2021/07/23 20:47:27;;;;;;;11.70;9.00;;;;;;;17.71;72.31;101333.09;10445947;28;20060;-62
2021/07/23 20:52:30;;;;;;;14.50;9.77;;;;;;;17.63;72.95;101337.19;10463506;28;20051;-63
2021/07/23 20:57:32;;;;;;;12.65;8.25;;;;;;;17.31;73.67;101339.66;10461791;28;20510;-62
2021/07/23 21:02:34;;;;;;;12.02;9.15;;;;;;;17.40;73.30;101340.75;10462008;28;20041;-62
2021/07/23 21:07:37;;;;;;;15.55;9.35;;;;;;;17.29;73.47;101322.25;10461485;28;20048;-62
2021/07/23 21:12:40;;;;;;;12.75;9.27;;;;;;;17.16;74.67;101328.47;10462990;28;20048;-62
2021/07/23 21:17:43;;;;;;;11.65;8.82;;;;;;;17.25;74.10;101334.88;10462647;28;20452;-62
2021/07/23 21:22:45;;;;;;;12.60;9.75;;;;;;;17.04;74.33;101329.41;10462525;28;20049;-61
2021/07/23 21:27:48;;;;;;;12.68;9.00;;;;;;;17.17;74.09;101316.09;10461872;28;20052;-62
2021/07/23 21:32:51;;;;;;;11.88;9.35;;;;;;;17.26;72.84;101310.09;10461229;28;20408;-62
2021/07/23 21:37:53;;;;;;;13.15;9.65;;;;;;;17.11;74.03;101308.63;10461516;28;20049;-62
2021/07/23 21:42:55;;;;;;;13.02;9.73;;;;;;;17.16;73.52;101306.47;10461338;28;20481;-63
2021/07/23 21:47:57;;;;;;;13.23;10.15;;;;;;;17.15;73.61;101305.63;10461307;28;20045;-62
2021/07/23 21:53:00;;;;;;;17.48;11.20;;;;;;;16.99;73.88;101305.13;10461078;28;20045;-62
2021/07/23 21:58:02;;;;;;;17.35;12.15;;;;;;;16.87;73.89;101301.59;10460821;28;20052;-63
2021/07/23 22:03:04;;;;;;;18.73;11.93;;;;;;;16.75;74.63;101295.41;10460816;28;20052;-62
2021/07/23 22:08:07;;;;;;;15.52;10.50;;;;;;;16.70;75.37;101297.56;10459213;28;20057;-61
2021/07/23 22:13:10;;;;;;;16.15;11.02;;;;;;;16.56;75.40;101292.47;10460444;28;20055;-61
2021/07/23 22:18:12;;;;;;;18.30;9.98;;;;;;;16.33;75.79;101297.66;10458788;28;20044;-62
2021/07/23 22:23:14;;;;;;;15.63;10.90;;;;;;;16.31;76.13;101291.66;10460056;28;20401;-61
2021/07/23 22:28:16;;;;;;;15.73;11.85;;;;;;;16.07;75.89;101289.00;10459466;28;20064;-61
2021/07/23 22:33:19;;;;;;;13.35;9.80;;;;;;;16.12;75.92;101285.09;10458046;28;20052;-62
2021/07/23 22:38:21;;;;;;;14.35;11.38;;;;;;;15.91;76.94;101282.19;10457883;28;20496;-62
2021/07/23 22:43:23;;;;;;;14.52;10.40;;;;;;;15.81;77.71;101289.09;10459142;28;20049;-62
2021/07/23 22:48:26;;;;;;;16.02;10.18;;;;;;;15.89;76.91;101285.91;10458643;28;20508;-62
2021/07/23 22:53:28;;;;;;;15.88;10.45;;;;;;;15.64;77.91;101295.53;10458712;28;20488;-61
2021/07/23 22:58:30;;;;;;;13.80;10.05;;;;;;;15.78;77.49;101281.38;10458204;28;20084;-63
2021/07/23 23:03:33;;;;;;;14.57;11.18;;;;;;;15.39;79.17;101276.16;10457817;28;20499;-62
2021/07/23 23:08:35;;;;;;;11.18;9.98;;;;;;;15.37;79.20;101272.78;10457202;28;20045;-62
2021/07/23 23:13:37;;;;;;;15.10;10.38;;;;;;;15.48;78.25;101279.09;10457886;28;20045;-61